• Join FlightAware (Why Join?)
  • Login
  • US Flag 
11:55PM EDT


 

Airport Tracker/Info


-or-


 

Live Flight TrackerFlight Track Log ✈ N713WT ✈ 22-Apr-2012 ✈ T94 - KHOU

Flight Track Log - Related Links

Times and Time Zones

All times are in EDT time to prevent confusion due to time zone crossing. See the N713WT flight status page for this flight to view local times or setup timezone preferences in your user account.

Time Position Orientation Groundspeed Altitude Reporting Facility
EDT Latitude Longitude Course Direction KTS MPH feet Rate Location/Type
01:58PM 29.8975 -98.1811 89° East 210 242 13,500  Level Houston Center
01:59PM 29.8981 -98.1236 95° East 199 229 13,500 -60 Level Houston Center
02:00PM 29.8931 -98.0517 96° East 199 229 13,400  Descending Houston Center
02:01PM 29.8875 -97.9939 95° East 199 229 13,500  Climbing Houston Center
02:02PM 29.8825 -97.9217 99° East 199 229 13,500  Level Houston Center
02:03PM 29.8747 -97.8639 102° East 199 229 13,500  Level Houston Center
02:04PM 29.8614 -97.7911 98° East 204 235 13,500  Level Houston Center
02:05PM 29.8536 -97.7308 93° East 204 235 13,500  Level Houston Center
02:06PM 29.8506 -97.6614 85° East 199 229 13,500  Level Houston Center
02:07PM 29.8553 -97.6017 91° East 199 229 13,500  Level Houston Center
02:08PM 29.8539 -97.5347 89° East 199 229 13,500  Level Houston Center
02:09PM 29.8547 -97.4700 93° East 199 229 13,500  Level Houston Center
02:10PM 29.8514 -97.4006 98° East 199 229 13,600 -60 Climbing Houston Center
02:11PM 29.8436 -97.3331 99° East 205 236 13,400 -60 Descending Houston Center
02:12PM 29.8339 -97.2656 100° East 205 236 13,500  Climbing Houston Center
02:13PM 29.8242 -97.2028 92° East 205 236 13,400  Descending Houston Center
02:14PM 29.8225 -97.1356 87° East 205 236 13,500 -180 Climbing Houston Center
02:15PM 29.8253 -97.0689 89° East 200 230 13,100 -480 Descending Houston Center
02:16PM 29.8258 -96.9994 95° East 200 230 12,600 -540 Descending Houston Center
02:17PM 29.8203 -96.9322 95° East 205 236 12,100 -600 Descending Houston Center
02:18PM 29.8147 -96.8600 98° East 210 242 11,400 -600 Descending Houston Center
02:19PM 29.8100 -96.8192 92° East 219 252 11,100 -480 Descending Houston Center
02:20PM 29.8083 -96.7522 99° East 216 249 10,700 -480 Descending Houston Center
02:21PM 29.7953 -96.6558 103° East 215 247 10,000 -540 Descending Houston Center
02:22PM 29.7864 -96.6122 98° East 211 243 9,600 -720 Descending Houston Center
02:23PM 29.7783 -96.5425 97° East 211 243 8,800 -720 Descending Houston Center
02:24PM 29.7706 -96.4703 94° East 216 249 8,200 -600 Descending Houston Center
02:25PM 29.7667 -96.4008 95° East 207 238 7,700 -600 Descending Houston Center
02:26PM 29.7611 -96.3264 92° East 209 241 7,000 -600 Descending Houston Center
02:27PM 29.7592 -96.2569 95° East 207 238 6,400 -660 Descending Houston Center
02:28PM 29.7550 -96.1972 94° East 210 242 5,800 -660 Descending Houston Center
02:29PM 29.7508 -96.1300 103° East 208 239 5,200 -540 Descending Houston Center
02:30PM 29.7383 -96.0672 103° East 201 231 4,800 -420 Descending Houston Center
02:31PM 29.7258 -96.0044 98° East 205 236 4,400 -480 Descending Houston Center
02:32PM 29.7175 -95.9397 99° East 195 224 3,900 -480 Descending Houston Center
02:33PM 29.7089 -95.8772 97° East 194 223 3,500 -300 Descending Houston Center
02:34PM 29.7025 -95.8147 95° East 194 223 3,300 -420 Descending Houston Center
02:35PM 29.6981 -95.7525 97° East 194 223 2,700 -360 Descending Houston Center
02:36PM 29.6917 -95.6900 100° East 193 222 2,600 -120 Descending Houston Center
02:37PM 29.6828 -95.6322 111° Southeast 182 209 2,500 -180 Descending Houston Center
02:38PM 29.6656 -95.5814 98° East 179 206 2,300 -240 Descending Houston Center
02:39PM 29.6569 -95.5142 96° East 178 205 2,000 -240 Descending Houston Center
02:40PM 29.6522 -95.4639 98° East 176 203 1,900 -240 Descending Houston Center
02:41PM 29.6453 -95.4086 107° East 173 199 1,600 -360 Descending Houston Center
02:42PM 29.6303 -95.3531 100° East 169 194 1,200 -600 Descending Houston Center
02:43PM 29.6231 -95.3075 100° East 138 159 500 -720 Descending Houston Center